Time;durP1;ratioP1;P1;durP2;ratioP2;P2;SDS_P1;SDS_P2;PMS_P1;PMS_P2;Temp;Humidity;BMP_temperature;BMP_pressure;BME280_temperature;BME280_humidity;BME280_pressure;Samples;Min_cycle;Max_cycle;Signal;HPM_P1;HPM_P2
2022/01/30 00:00:37;;;;;;;17.23;4.28;;;;;;;9.09;62.96;102658.47;5042248;28;20079;-58
2022/01/30 00:03:04;;;;;;;21.67;3.22;;;;;;;9.07;62.88;102659.66;5055884;28;20041;-58
2022/01/30 00:05:34;;;;;;;20.80;4.63;;;;;;;9.09;62.44;102663.00;5043612;28;20569;-58
2022/01/30 00:08:02;;;;;;;20.05;4.38;;;;;;;9.04;62.68;102655.44;5048272;28;20044;-56
2022/01/30 00:10:36;;;;;;;19.60;4.35;;;;;;;9.08;62.35;102670.22;5043713;28;20056;-58
2022/01/30 00:13:06;;;;;;;18.33;4.30;;;;;;;9.06;62.70;102677.56;5041334;28;20057;-58
2022/01/30 00:15:41;;;;;;;16.20;4.25;;;;;;;9.06;62.65;102676.75;5046889;28;20052;-58
2022/01/30 00:18:40;;;;;;;24.58;4.82;;;;;;;9.07;62.33;102686.47;5040453;28;20045;-58
2022/01/30 00:21:12;;;;;;;19.20;4.95;;;;;;;9.07;63.04;102687.31;5040454;28;20091;-58
2022/01/30 00:23:46;;;;;;;14.35;3.88;;;;;;;9.03;62.53;102679.75;5044867;28;20451;-57
2022/01/30 00:26:16;;;;;;;28.17;6.25;;;;;;;9.01;62.75;102687.97;5040686;28;20049;-58
2022/01/30 00:28:44;;;;;;;20.17;4.60;;;;;;;8.96;62.89;102684.09;5070140;28;20409;-58
2022/01/30 00:31:13;;;;;;;12.30;3.22;;;;;;;9.02;62.95;102696.84;5078721;28;20077;-58
2022/01/30 00:33:42;;;;;;;20.00;4.80;;;;;;;9.01;63.06;102687.13;5078735;28;20053;-58
2022/01/30 00:36:10;;;;;;;21.48;5.35;;;;;;;9.01;62.07;102700.53;5080271;28;20072;-58
2022/01/30 00:38:38;;;;;;;21.48;4.68;;;;;;;8.99;61.73;102695.34;5067916;28;20438;-58
2022/01/30 00:41:06;;;;;;;19.85;4.30;;;;;;;8.97;61.67;102704.56;5072339;28;20086;-58
2022/01/30 00:43:39;;;;;;;21.38;4.15;;;;;;;8.94;61.86;102703.03;5076510;28;20060;-58
2022/01/30 00:46:07;;;;;;;27.90;5.05;;;;;;;8.94;61.97;102694.16;5080280;28;20071;-58
2022/01/30 00:48:35;;;;;;;22.85;3.88;;;;;;;8.90;62.39;102695.50;5068607;28;20050;-58
2022/01/30 00:51:04;;;;;;;22.25;5.50;;;;;;;8.90;62.50;102696.34;5074255;28;20738;-59
2022/01/30 00:53:32;;;;;;;22.98;3.95;;;;;;;8.89;62.27;102699.19;5078479;28;20192;-58
2022/01/30 00:56:00;;;;;;;18.27;4.18;;;;;;;8.90;62.66;102696.34;5079323;28;20508;-58
2022/01/30 00:58:27;;;;;;;19.17;4.60;;;;;;;8.89;62.56;102705.38;5081234;28;20068;-58
2022/01/30 01:00:55;;;;;;;19.05;4.28;;;;;;;8.87;63.01;102702.03;5077088;28;20044;-58
2022/01/30 01:03:24;;;;;;;18.77;3.63;;;;;;;8.86;62.92;102699.50;5063750;28;20064;-58
2022/01/30 01:05:52;;;;;;;22.88;3.78;;;;;;;8.85;62.51;102704.03;5075849;28;20098;-58
2022/01/30 01:08:30;;;;;;;17.48;5.50;;;;;;;8.80;63.25;102707.22;5078040;28;20080;-58
2022/01/30 01:11:11;;;;;;;18.55;5.90;;;;;;;8.80;62.90;102717.94;5076385;28;20518;-59
2022/01/30 01:24:46;;;;;;;22.45;4.05;;;;;;;8.73;62.50;102719.59;5081354;28;20075;-58
2022/01/30 01:27:13;;;;;;;15.77;4.22;;;;;;;8.74;62.63;102715.06;5080495;28;20075;-58
2022/01/30 01:29:41;;;;;;;13.18;4.07;;;;;;;8.74;62.78;102720.44;5076307;28;20057;-58
2022/01/30 01:32:09;;;;;;;22.02;4.30;;;;;;;8.73;62.53;102718.75;5076899;28;20071;-58
2022/01/30 01:34:39;;;;;;;22.45;4.53;;;;;;;8.69;62.51;102731.66;5074480;28;20049;-58
2022/01/30 01:37:09;;;;;;;18.92;4.85;;;;;;;8.69;62.98;102725.44;5072051;28;20161;-58
2022/01/30 01:39:42;;;;;;;14.07;3.35;;;;;;;8.66;63.04;102732.00;5077238;28;20041;-58
2022/01/30 01:42:14;;;;;;;22.48;4.63;;;;;;;8.68;62.48;102734.50;5072283;28;20040;-58
2022/01/30 01:44:45;;;;;;;16.17;3.72;;;;;;;8.64;62.64;102734.00;5076255;28;20052;-58
2022/01/30 01:47:15;;;;;;;15.02;3.90;;;;;;;8.64;62.50;102741.22;5077811;28;20044;-58
2022/01/30 01:49:43;;;;;;;24.42;3.80;;;;;;;8.63;63.01;102737.69;5074258;28;20540;-58
2022/01/30 01:52:21;;;;;;;23.70;4.65;;;;;;;8.63;62.95;102745.72;5069550;28;20490;-58
2022/01/30 01:54:52;;;;;;;20.42;4.45;;;;;;;8.62;63.01;102737.84;5062308;28;20048;-58
2022/01/30 01:57:22;;;;;;;18.42;3.92;;;;;;;8.62;62.92;102738.69;5068551;28;20037;-58
2022/01/30 01:59:51;;;;;;;15.57;4.07;;;;;;;8.62;62.50;102744.06;5076894;28;20052;-58
2022/01/30 02:02:19;;;;;;;17.05;4.63;;;;;;;8.63;62.95;102743.06;5074603;28;20052;-58
2022/01/30 02:04:47;;;;;;;24.38;4.68;;;;;;;8.65;62.60;102742.88;5069681;28;20048;-58
2022/01/30 02:09:59;;;;;;;17.98;4.18;;;;;;;8.62;63.36;102735.16;5033607;28;20166;-58
2022/01/30 02:12:35;;;;;;;16.45;3.70;;;;;;;8.62;63.03;102737.84;5073808;28;20048;-58
2022/01/30 02:15:18;;;;;;;20.87;4.90;;;;;;;8.62;62.95;102730.66;5080427;28;20064;-58
2022/01/30 02:26:04;;;;;;;18.85;4.75;;;;;;;8.56;62.79;102725.09;5073054;28;20080;-58
2022/01/30 02:28:33;;;;;;;19.48;4.20;;;;;;;8.53;62.24;102720.91;5067215;28;20045;-58
2022/01/30 02:31:06;;;;;;;20.13;5.00;;;;;;;8.54;62.53;102724.44;5072136;28;20526;-58
2022/01/30 02:33:34;;;;;;;23.92;4.05;;;;;;;8.52;63.35;102739.81;5068553;28;20113;-58
2022/01/30 02:36:01;;;;;;;18.80;3.60;;;;;;;8.50;63.01;102748.03;5080314;28;20072;-58
2022/01/30 02:38:31;;;;;;;20.67;5.15;;;;;;;8.47;63.54;102738.47;5079694;28;20076;-58
2022/01/30 02:40:59;;;;;;;20.55;4.25;;;;;;;8.47;63.66;102734.94;5082406;28;20076;-58
2022/01/30 02:43:30;;;;;;;19.80;4.95;;;;;;;8.45;63.44;102726.22;5085711;28;20052;-58
2022/01/30 02:46:06;;;;;;;22.38;5.60;;;;;;;8.46;62.95;102735.94;5077575;28;20140;-58
2022/01/30 02:48:47;;;;;;;20.63;6.03;;;;;;;8.44;62.92;102724.56;5074236;28;20044;-57
2022/01/30 02:51:18;;;;;;;21.30;3.92;;;;;;;8.43;62.56;102721.03;5074431;28;20051;-57
2022/01/30 02:53:55;;;;;;;22.00;4.72;;;;;;;8.35;62.93;102709.44;5073432;28;20040;-58
2022/01/30 02:56:23;;;;;;;20.88;4.47;;;;;;;8.37;62.78;102715.50;5079802;28;20067;-57
2022/01/30 02:58:51;;;;;;;19.90;5.03;;;;;;;8.36;62.47;102725.38;5080621;28;20120;-58
2022/01/30 03:01:18;;;;;;;21.10;4.30;;;;;;;8.38;62.09;102728.72;5081627;28;20056;-58
2022/01/30 03:03:47;;;;;;;25.40;5.13;;;;;;;8.38;62.82;102735.91;5081798;28;20079;-58
2022/01/30 03:06:15;;;;;;;17.25;3.75;;;;;;;8.36;63.26;102736.06;5087463;28;20044;-58
2022/01/30 03:08:43;;;;;;;25.27;5.43;;;;;;;8.35;62.57;102741.59;5075037;28;20045;-58
2022/01/30 03:11:12;;;;;;;16.88;4.72;;;;;;;8.33;62.30;102739.06;5085190;28;20082;-58
2022/01/30 03:13:40;;;;;;;19.90;4.85;;;;;;;8.32;62.58;102744.56;5078500;28;20340;-58
2022/01/30 03:16:08;;;;;;;26.73;6.20;;;;;;;8.29;62.77;102743.03;5082804;28;20406;-58
2022/01/30 03:18:36;;;;;;;16.17;3.95;;;;;;;8.28;62.92;102749.41;5080013;28;20127;-58
2022/01/30 03:21:05;;;;;;;23.05;5.65;;;;;;;8.29;62.41;102750.25;5092449;28;20072;-57
2022/01/30 03:23:36;;;;;;;16.90;3.65;;;;;;;8.28;62.88;102753.91;5087267;28;20064;-58
2022/01/30 03:26:04;;;;;;;19.17;4.47;;;;;;;8.27;63.36;102763.78;5078776;28;20074;-58
2022/01/30 03:28:33;;;;;;;19.08;5.25;;;;;;;8.25;63.34;102757.75;5079242;28;20053;-58
2022/01/30 03:31:04;;;;;;;29.40;4.80;;;;;;;8.26;63.61;102770.16;5087116;28;20055;-58
2022/01/30 03:33:32;;;;;;;19.80;4.57;;;;;;;8.27;63.19;102771.00;5081548;28;20049;-58
2022/01/30 03:36:00;;;;;;;20.83;4.10;;;;;;;8.26;62.95;102767.47;5083215;28;20086;-58
2022/01/30 03:38:28;;;;;;;19.42;4.63;;;;;;;8.26;62.81;102778.19;5079690;28;20075;-58
2022/01/30 03:40:56;;;;;;;19.05;3.97;;;;;;;8.26;63.05;102783.53;5091040;28;20494;-58
2022/01/30 03:43:24;;;;;;;27.20;5.63;;;;;;;8.26;63.34;102799.63;5082795;28;20056;-58
2022/01/30 03:45:53;;;;;;;15.07;4.13;;;;;;;8.26;63.23;102806.81;5085304;28;20039;-58
2022/01/30 03:48:20;;;;;;;23.33;5.60;;;;;;;8.24;63.48;102801.63;5082175;28;20184;-58
2022/01/30 03:50:48;;;;;;;21.35;3.90;;;;;;;8.25;63.30;102807.81;5087130;28;20051;-58
2022/01/30 03:53:17;;;;;;;19.20;3.60;;;;;;;8.23;63.49;102813.31;5084366;28;20060;-57
2022/01/30 03:55:44;;;;;;;16.33;3.50;;;;;;;8.24;63.18;102817.69;5083832;28;20047;-58
2022/01/30 03:58:12;;;;;;;18.85;3.95;;;;;;;8.24;63.62;102817.69;5072043;28;20080;-58
2022/01/30 04:00:40;;;;;;;16.35;4.15;;;;;;;8.22;62.98;102814.31;5068952;28;20055;-58
2022/01/30 04:03:09;;;;;;;24.42;5.35;;;;;;;8.21;62.76;102820.69;5075101;28;20052;-58
2022/01/30 04:05:38;;;;;;;22.33;4.13;;;;;;;8.23;63.11;102815.16;5090341;28;20063;-58
2022/01/30 04:08:06;;;;;;;16.05;4.30;;;;;;;8.21;63.00;102820.69;5083046;28;20051;-58
2022/01/30 04:10:35;;;;;;;21.15;4.90;;;;;;;8.22;63.38;102825.03;5089391;28;20048;-58
2022/01/30 04:13:03;;;;;;;22.85;4.45;;;;;;;8.20;63.38;102824.34;5080618;28;20045;-58
2022/01/30 04:15:31;;;;;;;18.23;3.40;;;;;;;8.21;63.74;102828.72;5075097;28;20095;-58
2022/01/30 04:18:01;;;;;;;17.77;5.18;;;;;;;8.18;63.04;102826.34;5083177;28;20052;-58
2022/01/30 04:20:33;;;;;;;18.35;3.92;;;;;;;8.21;63.44;102836.75;5068747;28;20492;-58
2022/01/30 04:23:01;;;;;;;24.05;3.60;;;;;;;8.21;62.98;102839.44;5076206;28;20052;-57
2022/01/30 04:25:29;;;;;;;15.00;3.50;;;;;;;8.21;63.02;102835.91;5082821;28;20083;-58
2022/01/30 04:27:57;;;;;;;19.55;3.90;;;;;;;8.21;63.63;102839.44;5069861;28;20049;-58
2022/01/30 04:30:25;;;;;;;18.73;4.28;;;;;;;8.20;63.13;102840.44;5078976;28;20056;-58
2022/01/30 04:32:53;;;;;;;24.52;4.55;;;;;;;8.18;63.75;102831.72;5078855;28;20046;-58
2022/01/30 04:35:25;;;;;;;19.65;5.25;;;;;;;8.19;63.40;102837.91;5081658;28;20052;-58
2022/01/30 04:38:03;;;;;;;17.40;4.38;;;;;;;8.18;63.57;102826.34;5069175;28;20072;-58
2022/01/30 04:41:10;;;;;;;25.08;5.72;;;;;;;8.16;63.00;102826.50;5078815;28;20045;-58
2022/01/30 04:57:49;;;;;;;16.05;3.55;;;;;;;8.14;62.76;102866.00;4993948;28;20061;-58
2022/01/30 05:00:32;;;;;;;28.88;5.30;;;;;;;8.11;63.54;102854.75;5015940;28;20046;-58
2022/01/30 05:03:17;;;;;;;14.60;3.53;;;;;;;8.11;62.93;102860.94;5013037;28;20063;-59
2022/01/30 05:05:56;;;;;;;18.33;3.63;;;;;;;8.11;63.84;102863.63;5005965;28;20065;-57
2022/01/30 05:08:24;;;;;;;21.40;4.88;;;;;;;8.11;63.41;102873.50;5018674;28;20080;-58
2022/01/30 05:10:54;;;;;;;22.17;4.53;;;;;;;8.10;63.93;102874.50;5019009;28;20053;-58
2022/01/30 05:13:26;;;;;;;20.27;4.20;;;;;;;8.09;63.68;102870.97;5015702;28;20046;-58
2022/01/30 05:15:54;;;;;;;17.85;4.70;;;;;;;8.09;63.90;102872.81;5018470;28;20053;-58
2022/01/30 05:18:24;;;;;;;22.98;4.60;;;;;;;8.07;63.33;102880.16;5011278;28;20419;-58
2022/01/30 05:20:52;;;;;;;22.77;4.38;;;;;;;8.06;62.87;102871.28;5015727;28;20092;-58
2022/01/30 05:23:20;;;;;;;18.73;3.33;;;;;;;8.05;63.27;102874.97;5018634;28;20409;-57
2022/01/30 05:25:49;;;;;;;24.05;4.50;;;;;;;8.07;63.82;102885.53;5004896;28;20165;-58
2022/01/30 05:28:22;;;;;;;18.85;4.45;;;;;;;8.03;63.82;102878.78;5009116;28;20046;-58
2022/01/30 05:30:50;;;;;;;23.35;5.28;;;;;;;8.04;63.79;102880.47;5049305;28;20416;-58
2022/01/30 05:33:19;;;;;;;20.52;4.20;;;;;;;8.02;63.73;102879.78;5073255;28;20040;-58
2022/01/30 05:35:47;;;;;;;24.75;4.22;;;;;;;8.00;63.16;102887.97;5077544;28;20057;-58
2022/01/30 05:38:15;;;;;;;16.88;4.15;;;;;;;8.00;63.71;102884.47;5080988;28;20052;-58
2022/01/30 05:40:43;;;;;;;21.23;4.60;;;;;;;8.00;62.91;102890.66;5072950;28;20052;-58
2022/01/30 05:43:12;;;;;;;19.67;4.10;;;;;;;7.99;62.83;102891.66;5073494;28;20056;-58
2022/01/30 05:45:44;;;;;;;19.85;3.45;;;;;;;7.98;63.90;102886.44;5076152;28;20077;-58
2022/01/30 05:48:15;;;;;;;19.33;4.07;;;;;;;7.96;62.93;102889.28;5080774;28;20048;-58
2022/01/30 05:50:44;;;;;;;25.05;4.28;;;;;;;7.96;63.39;102888.44;5071291;28;20536;-58
2022/01/30 05:53:13;;;;;;;20.05;4.90;;;;;;;7.96;63.38;102894.63;5071939;28;20052;-58
2022/01/30 05:55:41;;;;;;;19.85;3.35;;;;;;;7.97;62.76;102893.66;5073388;28;20079;-59
2022/01/30 05:58:10;;;;;;;26.30;5.60;;;;;;;7.98;62.32;102897.16;5080648;28;20045;-58
2022/01/30 06:00:37;;;;;;;16.20;3.35;;;;;;;7.82;62.67;102876.44;5070132;28;20037;-58
2022/01/30 06:03:06;;;;;;;19.92;3.60;;;;;;;7.96;63.01;102894.63;5081122;28;20048;-58
2022/01/30 06:05:34;;;;;;;15.20;4.45;;;;;;;7.96;63.27;102899.16;5073744;28;20083;-58
2022/01/30 06:08:11;;;;;;;16.90;3.85;;;;;;;7.95;63.14;102897.47;5074716;28;20102;-58
2022/01/30 06:10:38;;;;;;;20.45;4.10;;;;;;;7.95;62.35;102900.16;5079743;28;20711;-58
2022/01/30 06:13:06;;;;;;;19.80;4.00;;;;;;;7.94;62.67;102899.31;5074140;28;20144;-58
2022/01/30 06:15:34;;;;;;;18.15;4.00;;;;;;;7.92;62.46;102895.09;5080293;28;20045;-58
2022/01/30 06:18:01;;;;;;;22.30;4.25;;;;;;;7.92;62.73;102903.13;5064890;28;20048;-58
2022/01/30 06:20:31;;;;;;;17.73;4.15;;;;;;;7.90;62.73;102905.97;5075019;28;20079;-59
2022/01/30 06:23:13;;;;;;;19.80;3.42;;;;;;;7.88;62.70;102897.25;4887239;28;10000979;-58
2022/01/30 06:25:40;;;;;;;16.02;3.97;;;;;;;7.89;62.88;102900.75;5065232;28;20277;-58
2022/01/30 06:28:08;;;;;;;17.35;3.58;;;;;;;7.88;62.84;102904.44;5068960;28;20561;-58
2022/01/30 06:30:36;;;;;;;15.02;2.85;;;;;;;7.86;62.66;102909.94;5071451;28;20406;-58
2022/01/30 06:33:04;;;;;;;18.08;3.53;;;;;;;7.84;62.28;102910.09;5068960;28;20075;-59
2022/01/30 06:35:33;;;;;;;18.55;3.95;;;;;;;7.84;62.50;102906.56;5068250;28;20125;-58
2022/01/30 06:38:02;;;;;;;14.30;4.65;;;;;;;7.87;62.16;102903.59;5069018;28;20071;-58
2022/01/30 06:40:30;;;;;;;17.80;4.07;;;;;;;7.98;62.09;102913.22;5070312;28;20132;-59
2022/01/30 06:42:58;;;;;;;17.80;3.50;;;;;;;8.09;61.51;102918.34;5076180;28;20048;-57
2022/01/30 06:45:32;;;;;;;16.75;3.70;;;;;;;8.24;60.81;102918.63;5064699;28;20298;-58
2022/01/30 06:48:00;;;;;;;13.13;3.13;;;;;;;8.40;60.92;102924.16;5071628;28;20068;-58
2022/01/30 06:50:28;;;;;;;16.30;2.80;;;;;;;8.55;60.01;102925.25;5070720;28;20083;-57
2022/01/30 06:52:57;;;;;;;14.02;2.85;;;;;;;8.65;60.19;102930.50;5073004;28;20158;-58
2022/01/30 06:55:24;;;;;;;11.40;3.28;;;;;;;8.78;58.78;102921.00;5068762;28;20103;-59
2022/01/30 06:57:52;;;;;;;8.95;2.75;;;;;;;9.01;58.34;102923.13;5065354;28;20048;-58
2022/01/30 07:00:20;;;;;;;20.45;3.00;;;;;;;9.16;58.27;102923.38;5062953;28;20049;-59
2022/01/30 07:02:48;;;;;;;14.25;4.07;;;;;;;9.25;58.33;102919.72;5066343;28;20128;-61
2022/01/30 07:05:16;;;;;;;16.17;3.67;;;;;;;9.35;58.11;102920.41;5063256;28;20098;-60
2022/01/30 07:07:43;;;;;;;23.80;4.10;;;;;;;9.40;57.80;102923.44;5068781;28;20237;-59
2022/01/30 07:10:12;;;;;;;12.43;3.20;;;;;;;9.45;57.35;102926.50;5073603;28;20060;-60
2022/01/30 07:12:40;;;;;;;15.45;2.90;;;;;;;9.39;58.02;102938.72;5074652;28;20060;-59
2022/01/30 07:15:09;;;;;;;13.50;3.05;;;;;;;9.34;57.70;102935.69;5070391;28;20048;-59
2022/01/30 07:17:37;;;;;;;15.27;3.58;;;;;;;9.10;57.27;102940.94;5073301;28;20048;-59
2022/01/30 07:20:05;;;;;;;14.27;2.88;;;;;;;8.93;58.60;102945.38;5071059;28;20063;-59
2022/01/30 07:22:33;;;;;;;19.33;4.53;;;;;;;8.79;58.45;102954.03;5072764;28;20181;-58
2022/01/30 07:25:01;;;;;;;21.75;3.63;;;;;;;8.67;59.30;102948.09;5065606;28;20052;-59
2022/01/30 07:27:30;;;;;;;16.02;2.80;;;;;;;8.59;59.99;102955.25;5076124;28;20077;-59
2022/01/30 07:29:58;;;;;;;19.42;3.92;;;;;;;8.53;60.07;102964.78;5072981;28;20107;-59
2022/01/30 07:32:27;;;;;;;15.18;3.70;;;;;;;8.44;59.96;102969.22;5075027;28;20155;-59
2022/01/30 07:34:55;;;;;;;15.77;3.80;;;;;;;8.38;60.59;102964.50;5073118;28;20044;-59
2022/01/30 07:37:24;;;;;;;21.10;3.20;;;;;;;8.32;61.07;102970.44;5075843;28;20049;-59
2022/01/30 07:39:52;;;;;;;19.77;3.88;;;;;;;8.27;61.02;102959.34;5069249;28;20088;-59
2022/01/30 07:42:21;;;;;;;23.05;4.05;;;;;;;8.22;61.02;102968.84;5074654;28;20135;-59
2022/01/30 07:44:50;;;;;;;18.55;4.57;;;;;;;8.18;60.28;102978.19;5065573;28;20045;-59
2022/01/30 07:47:17;;;;;;;15.40;4.50;;;;;;;8.11;60.26;102972.59;5074048;28;20072;-59
2022/01/30 07:49:49;;;;;;;21.92;3.90;;;;;;;8.05;60.84;102986.59;5070284;28;20262;-58
2022/01/30 07:52:17;;;;;;;15.55;3.47;;;;;;;8.02;60.82;102984.22;5079594;28;20040;-60
2022/01/30 07:54:44;;;;;;;12.90;2.80;;;;;;;7.99;61.06;102988.03;5075125;28;20044;-60
2022/01/30 07:57:12;;;;;;;11.65;3.50;;;;;;;7.98;61.19;102982.84;5073032;28;20118;-60
2022/01/30 07:59:40;;;;;;;15.50;3.05;;;;;;;7.96;61.50;102991.03;5072970;28;20052;-59
2022/01/30 08:02:09;;;;;;;19.95;3.15;;;;;;;7.95;61.23;102993.84;5076203;28;20047;-59
2022/01/30 08:04:38;;;;;;;15.70;2.80;;;;;;;7.92;61.73;102991.47;5069102;28;20560;-59
2022/01/30 08:07:06;;;;;;;10.50;3.80;;;;;;;7.91;61.81;102996.00;5068536;28;20512;-59
2022/01/30 08:09:37;;;;;;;15.63;3.20;;;;;;;7.89;61.89;102994.47;5067242;28;20116;-61
2022/01/30 08:12:06;;;;;;;14.98;4.13;;;;;;;7.89;61.93;102997.13;5082398;28;20040;-59
2022/01/30 08:14:34;;;;;;;14.77;3.42;;;;;;;7.88;62.09;103003.50;5080978;28;20045;-59
2022/01/30 08:17:02;;;;;;;17.38;3.22;;;;;;;7.86;61.21;103000.13;5073491;28;20055;-59
2022/01/30 08:19:31;;;;;;;17.30;4.68;;;;;;;7.80;62.01;102997.06;5072912;28;20053;-59
2022/01/30 08:22:04;;;;;;;15.77;2.95;;;;;;;7.83;61.54;103001.25;5076572;28;20109;-59
2022/01/30 08:24:32;;;;;;;13.35;3.67;;;;;;;7.82;62.16;103002.25;5071761;28;20052;-59
2022/01/30 08:27:00;;;;;;;19.98;3.75;;;;;;;7.80;61.79;103007.75;5080360;28;20071;-59
2022/01/30 08:29:27;;;;;;;22.45;3.45;;;;;;;7.79;61.58;103005.25;5082780;28;20135;-58
2022/01/30 08:31:56;;;;;;;16.23;3.72;;;;;;;7.78;61.34;103007.06;5070099;28;20040;-59
2022/01/30 08:34:24;;;;;;;13.75;3.40;;;;;;;7.76;61.82;103006.38;5080546;28;20063;-60
2022/01/30 08:36:53;;;;;;;17.17;4.57;;;;;;;7.73;62.28;103020.06;5074430;28;20173;-59
2022/01/30 08:39:21;;;;;;;19.98;4.55;;;;;;;7.73;61.53;103008.50;5074537;28;20049;-59
2022/01/30 08:41:49;;;;;;;13.98;4.35;;;;;;;7.73;61.79;103008.50;5064456;28;20044;-59
2022/01/30 08:44:16;;;;;;;12.48;2.50;;;;;;;7.71;61.91;103003.31;5062647;28;20056;-59
2022/01/30 08:46:44;;;;;;;21.45;4.18;;;;;;;7.73;62.12;103012.03;5063165;28;20049;-59
2022/01/30 08:49:14;;;;;;;14.52;3.35;;;;;;;7.70;61.46;103006.13;5064232;28;20048;-57
2022/01/30 08:51:41;;;;;;;17.30;3.30;;;;;;;7.58;61.39;103008.19;5078834;28;20045;-60
2022/01/30 08:54:11;;;;;;;18.75;5.85;;;;;;;7.59;61.97;103019.72;5071891;28;20045;-60
2022/01/30 08:56:38;;;;;;;19.20;3.67;;;;;;;7.59;62.18;103017.03;4727026;28;10000097;-60
2022/01/30 08:59:06;;;;;;;16.30;4.43;;;;;;;7.62;61.68;103022.09;5077149;28;20354;-61
2022/01/30 09:01:34;;;;;;;15.95;3.50;;;;;;;7.62;62.07;103014.91;5075830;28;20071;-60
2022/01/30 09:04:03;;;;;;;17.88;3.40;;;;;;;7.64;62.05;103020.97;5060573;28;20059;-60
2022/01/30 09:06:31;;;;;;;22.45;4.78;;;;;;;7.65;62.00;103016.44;5074420;28;20109;-60
2022/01/30 09:09:02;;;;;;;20.33;5.00;;;;;;;7.68;61.40;103019.66;5077359;28;20072;-60
2022/01/30 09:11:34;;;;;;;18.15;4.57;;;;;;;7.68;61.72;103019.66;5076775;28;20044;-60
2022/01/30 09:14:01;;;;;;;17.35;3.33;;;;;;;7.66;61.41;103021.66;5079063;28;20052;-60
2022/01/30 09:16:29;;;;;;;14.27;3.95;;;;;;;7.67;61.32;103035.88;5072981;28;20049;-60
2022/01/30 09:18:57;;;;;;;22.52;3.10;;;;;;;7.69;61.87;103031.22;5067270;28;20048;-60
2022/01/30 09:21:25;;;;;;;27.83;5.75;;;;;;;7.68;61.12;103041.06;5068846;28;20607;-60
2022/01/30 09:23:53;;;;;;;18.33;4.28;;;;;;;7.64;60.98;103037.00;5068335;28;20537;-61
2022/01/30 09:26:21;;;;;;;18.67;3.28;;;;;;;7.70;60.78;103057.00;5070978;28;20593;-60
2022/01/30 09:28:50;;;;;;;17.55;4.28;;;;;;;7.69;60.50;103048.13;5062048;28;20088;-61
2022/01/30 09:31:18;;;;;;;14.32;3.75;;;;;;;7.69;61.25;103048.13;5070825;28;20052;-60
2022/01/30 09:33:47;;;;;;;20.98;3.30;;;;;;;7.69;61.36;103049.94;5073502;28;20146;-61
2022/01/30 09:36:16;;;;;;;21.80;3.60;;;;;;;7.68;60.80;103046.44;5060073;28;20053;-61
2022/01/30 09:38:44;;;;;;;18.80;4.68;;;;;;;7.68;60.54;103042.91;5070866;28;20086;-60
2022/01/30 09:41:13;;;;;;;22.65;3.75;;;;;;;7.69;60.97;103048.13;5064602;28;20106;-61
2022/01/30 09:43:42;;;;;;;17.58;3.35;;;;;;;7.67;60.37;103060.81;5072276;28;20462;-61
2022/01/30 09:46:11;;;;;;;16.83;3.15;;;;;;;7.69;60.17;103063.31;5075090;28;20100;-60
2022/01/30 09:48:39;;;;;;;18.77;4.38;;;;;;;7.69;60.54;103066.00;5080945;28;20048;-60
2022/01/30 09:51:09;;;;;;;21.65;4.25;;;;;;;7.70;59.92;103063.19;5066548;28;20065;-60
2022/01/30 09:53:38;;;;;;;22.95;4.07;;;;;;;7.72;60.33;103071.06;5061210;28;20044;-60
2022/01/30 09:56:07;;;;;;;18.77;4.65;;;;;;;7.72;60.25;103069.22;5079230;28;20052;-60
2022/01/30 09:58:34;;;;;;;22.42;4.47;;;;;;;7.74;59.82;103075.28;5066544;28;20045;-60
2022/01/30 10:01:02;;;;;;;17.52;3.78;;;;;;;7.69;59.50;103069.53;5066139;28;20051;-60
2022/01/30 10:03:32;;;;;;;23.67;4.20;;;;;;;7.74;59.93;103071.75;5080395;28;20049;-60
2022/01/30 10:06:10;;;;;;;19.50;3.70;;;;;;;7.75;60.29;103079.63;5061035;28;20051;-60
2022/01/30 10:08:42;;;;;;;18.98;3.78;;;;;;;7.73;59.63;103080.78;5060068;28;20064;-60
2022/01/30 10:11:28;;;;;;;25.23;6.00;;;;;;;7.74;60.51;103077.09;5069573;28;20051;-59
2022/01/30 10:14:04;;;;;;;16.45;4.93;;;;;;;7.75;59.89;103084.16;5063153;28;20052;-60
2022/01/30 10:16:42;;;;;;;12.57;3.47;;;;;;;7.75;59.30;103094.84;5063785;28;20056;-60
2022/01/30 10:19:17;;;;;;;21.38;3.40;;;;;;;7.83;59.50;103094.97;5060656;28;20045;-60
2022/01/30 10:21:45;;;;;;;18.52;3.53;;;;;;;7.94;59.13;103108.16;5062748;28;20053;-60
2022/01/30 10:24:24;;;;;;;15.82;4.15;;;;;;;8.14;59.24;103103.53;5080318;28;20052;-60
2022/01/30 10:26:55;;;;;;;15.90;3.85;;;;;;;8.32;58.21;103100.88;5076303;28;20049;-60
2022/01/30 10:29:25;;;;;;;15.73;3.88;;;;;;;8.45;57.70;103096.84;5060895;28;20160;-60
2022/01/30 10:32:06;;;;;;;23.42;4.68;;;;;;;8.59;57.41;103100.00;5061040;28;20056;-60
2022/01/30 10:34:37;;;;;;;23.83;4.60;;;;;;;8.76;57.49;103093.75;5074773;28;20056;-60
2022/01/30 10:37:19;;;;;;;18.75;3.63;;;;;;;8.94;56.95;103091.03;5074180;28;20409;-60
2022/01/30 10:39:59;;;;;;;17.63;3.47;;;;;;;8.99;56.20;103086.91;5070373;28;20101;-60
2022/01/30 10:42:31;;;;;;;18.30;3.92;;;;;;;9.00;56.04;103091.25;5069058;28;20498;-60
2022/01/30 10:45:04;;;;;;;;;;;;;;;9.13;56.10;103093.53;5062683;28;20077;-60
2022/01/30 10:47:32;;;;;;;25.40;4.70;;;;;;;9.21;55.25;103095.44;5071627;28;19942;-60
2022/01/30 10:50:02;;;;;;;17.88;4.38;;;;;;;9.18;55.13;103091.22;5076496;28;20328;-60
2022/01/30 10:52:32;;;;;;;17.95;3.50;;;;;;;9.25;55.75;103091.44;5075158;28;20044;-60
2022/01/30 10:55:09;;;;;;;17.70;4.32;;;;;;;9.24;55.81;103085.22;5065039;28;20049;-60
2022/01/30 10:57:40;;;;;;;27.25;5.30;;;;;;;9.04;55.99;103063.13;5071058;28;20434;-58
2022/01/30 11:00:09;;;;;;;19.90;4.35;;;;;;;9.03;55.70;103072.16;5072817;28;20067;-58
2022/01/30 11:02:38;;;;;;;20.42;4.00;;;;;;;8.91;55.84;103086.00;5077068;28;20041;-59
2022/01/30 11:05:13;;;;;;;21.65;4.78;;;;;;;8.74;56.67;103080.50;5078678;28;20136;-58
2022/01/30 11:07:41;;;;;;;27.42;6.32;;;;;;;8.65;56.15;103083.28;5078809;28;20076;-59
2022/01/30 11:10:11;;;;;;;20.58;3.35;;;;;;;8.58;56.46;103076.88;5077235;28;20045;-58
2022/01/30 11:12:46;;;;;;;21.38;5.25;;;;;;;8.53;56.41;103074.66;5080607;28;20084;-58
2022/01/30 11:15:23;;;;;;;23.77;4.25;;;;;;;8.50;55.92;103068.75;5075056;28;20091;-59
2022/01/30 11:17:52;;;;;;;26.05;5.18;;;;;;;8.43;55.38;103066.69;5064277;28;20055;-58
2022/01/30 11:20:22;;;;;;;19.70;4.40;;;;;;;8.42;56.07;103062.31;5076221;28;20055;-60
2022/01/30 11:22:55;;;;;;;18.80;4.13;;;;;;;8.36;55.64;103054.91;5070281;28;20049;-58
2022/01/30 11:25:23;;;;;;;19.48;4.45;;;;;;;8.30;56.12;103054.63;5078909;28;20048;-59
2022/01/30 11:27:51;;;;;;;26.67;5.90;;;;;;;8.29;56.93;103051.13;5074401;28;20055;-59
2022/01/30 11:30:39;;;;;;;28.45;5.00;;;;;;;8.25;56.01;103056.94;5081976;28;20112;-59
2022/01/30 11:33:08;;;;;;;36.05;5.82;;;;;;;8.22;55.88;103057.22;5084173;28;20115;-58
2022/01/30 11:35:37;;;;;;;25.70;4.53;;;;;;;8.22;54.79;103044.69;5082545;28;20076;-58
2022/01/30 11:38:05;;;;;;;29.88;5.70;;;;;;;8.15;53.58;103044.44;5070319;28;20048;-59
2022/01/30 11:40:32;;;;;;;25.80;6.53;;;;;;;8.12;54.27;103058.13;5070722;28;20049;-59
2022/01/30 11:43:09;;;;;;;28.92;5.05;;;;;;;8.07;54.41;103052.41;5068444;28;20501;-58
2022/01/30 11:45:37;;;;;;;26.48;4.65;;;;;;;8.05;53.59;103046.34;5071072;28;20045;-59
2022/01/30 11:48:12;;;;;;;24.30;4.80;;;;;;;8.05;53.24;103045.50;5081933;28;20049;-59
2022/01/30 11:50:42;;;;;;;22.77;4.90;;;;;;;8.07;53.67;103043.53;5079378;28;20113;-58
2022/01/30 11:53:11;;;;;;;30.15;4.90;;;;;;;8.06;53.62;103041.84;5078630;28;20040;-58
2022/01/30 11:55:49;;;;;;;25.15;5.90;;;;;;;8.09;53.73;103041.53;5076627;28;20075;-60
2022/01/30 11:58:40;;;;;;;23.45;5.30;;;;;;;8.10;55.41;103040.53;5079483;28;20048;-58
2022/01/30 12:01:35;;;;;;;24.77;4.72;;;;;;;8.12;55.67;103033.19;5078012;28;20044;-59
2022/01/30 12:04:06;;;;;;;29.75;4.38;;;;;;;8.10;54.27;103044.06;5081197;28;20051;-59
2022/01/30 12:06:37;;;;;;;30.88;5.05;;;;;;;8.11;54.15;103034.19;5073077;28;20048;-60
2022/01/30 12:09:20;;;;;;;25.48;4.60;;;;;;;8.15;54.85;103040.94;5080793;28;20106;-60
2022/01/30 12:11:52;;;;;;;22.77;5.13;;;;;;;8.16;55.57;103037.25;5083276;28;20048;-60
2022/01/30 12:14:56;;;;;;;23.10;4.22;;;;;;;8.17;54.81;103046.97;5082570;28;20052;-60